Time;durP1;ratioP1;P1;durP2;ratioP2;P2;SDS_P1;SDS_P2;PMS_P1;PMS_P2;Temp;Humidity;BMP_temperature;BMP_pressure;BME280_temperature;BME280_humidity;BME280_pressure;Samples;Min_cycle;Max_cycle;Signal;HPM_P1;HPM_P2
2023/01/28 00:00:27;;;;;;;;;;;0.20;99.90;;;;;;5104598;28;19970;-69
2023/01/28 00:02:53;;;;;;;;;;;0.20;99.90;;;;;;5102114;28;20310;-69
2023/01/28 00:05:18;;;;;;;;;;;0.20;99.90;;;;;;5100971;28;20442;-69
2023/01/28 00:07:44;;;;;;;;;;;0.20;99.90;;;;;;5094772;28;20346;-70
2023/01/28 00:10:10;;;;;;;;;;;0.10;99.90;;;;;;5090095;28;19918;-69
2023/01/28 00:12:36;;;;;;;;;;;0.20;99.90;;;;;;5094439;28;20399;-70
2023/01/28 00:15:02;;;;;;;;;;;0.10;99.90;;;;;;5084553;28;20014;-69
2023/01/28 00:17:28;;;;;;;;;;;0.20;99.90;;;;;;5101435;28;19919;-69
2023/01/28 00:19:53;;;;;;;;;;;0.20;99.90;;;;;;5103082;28;19912;-69
2023/01/28 00:22:19;;;;;;;;;;;0.20;99.90;;;;;;5079627;28;19919;-69
2023/01/28 00:24:45;;;;;;;;;;;0.20;99.90;;;;;;5109652;27;21003;-68
2023/01/28 00:27:11;;;;;;;;;;;0.20;99.90;;;;;;5096529;28;20387;-70
2023/01/28 00:29:37;;;;;;;;;;;0.20;99.90;;;;;;5101154;28;19952;-70
2023/01/28 00:32:03;;;;;;;;;;;0.10;99.90;;;;;;5102075;28;19912;-70
2023/01/28 00:34:28;;;;;;;;;;;0.10;99.90;;;;;;5097524;28;20000;-70
2023/01/28 00:36:57;;;;;;;;;;;0.10;99.90;;;;;;5104692;28;19912;-69
2023/01/28 00:39:24;;;;;;;;;;;0.00;99.90;;;;;;5090872;28;19916;-69
2023/01/28 00:41:51;;;;;;;;;;;-0.20;99.90;;;;;;5094421;28;19912;-70
2023/01/28 00:44:18;;;;;;;;;;;-0.30;99.90;;;;;;5102215;28;19931;-69
2023/01/28 00:46:44;;;;;;;;;;;-0.50;99.90;;;;;;5103364;28;19967;-69
2023/01/28 00:49:09;;;;;;;;;;;-0.60;99.90;;;;;;5085325;28;19988;-69
2023/01/28 00:51:35;;;;;;;;;;;-0.40;99.90;;;;;;5097484;28;20283;-70
2023/01/28 00:54:01;;;;;;;;;;;-0.40;99.90;;;;;;5105154;28;19923;-70
2023/01/28 00:56:27;;;;;;;;;;;-0.30;99.90;;;;;;5096682;28;20338;-70
2023/01/28 00:58:53;;;;;;;;;;;-0.40;99.90;;;;;;5097853;28;20018;-69
2023/01/28 01:01:20;;;;;;;;;;;-0.40;99.90;;;;;;5099735;28;20406;-69
2023/01/28 01:03:46;;;;;;;;;;;-0.50;99.90;;;;;;5093806;28;19991;-69
2023/01/28 01:06:13;;;;;;;;;;;-0.60;99.90;;;;;;5100294;28;19919;-70
2023/01/28 01:08:41;;;;;;;;;;;-0.50;99.90;;;;;;5100843;28;19912;-70
2023/01/28 01:11:09;;;;;;;;;;;-0.50;99.90;;;;;;5101812;28;19912;-70
2023/01/28 01:13:35;;;;;;;;;;;-0.60;99.90;;;;;;5095134;28;19912;-68
2023/01/28 01:16:08;;;;;;;;;;;-0.60;99.90;;;;;;5105943;28;20037;-70
2023/01/28 01:18:34;;;;;;;;;;;-0.60;99.90;;;;;;5100028;28;19916;-70
2023/01/28 01:21:00;;;;;;;;;;;-0.50;99.90;;;;;;5101823;28;19912;-69
2023/01/28 01:23:26;;;;;;;;;;;-0.40;99.90;;;;;;5100613;28;19911;-69
2023/01/28 01:25:52;;;;;;;;;;;-0.30;99.90;;;;;;5103610;28;19920;-69
2023/01/28 01:28:19;;;;;;;;;;;-0.20;99.90;;;;;;5097863;28;19915;-69
2023/01/28 01:30:45;;;;;;;;;;;-0.10;99.90;;;;;;5096645;28;19918;-70
2023/01/28 01:33:11;;;;;;;;;;;-0.20;99.90;;;;;;5080604;28;20014;-68
2023/01/28 01:35:36;;;;;;;;;;;-0.20;99.90;;;;;;5103680;28;19938;-69
2023/01/28 01:38:02;;;;;;;;;;;-0.30;99.90;;;;;;5099062;28;19919;-69
2023/01/28 01:40:28;;;;;;;;;;;-0.30;99.90;;;;;;5103820;28;20393;-68
2023/01/28 01:42:54;;;;;;;;;;;-0.30;99.90;;;;;;5102021;28;19916;-70
2023/01/28 01:45:20;;;;;;;;;;;-0.30;99.90;;;;;;5099997;28;19912;-69
2023/01/28 01:47:59;;;;;;;;;;;-0.10;99.90;;;;;;5095111;28;19963;-68
2023/01/28 01:50:28;;;;;;;;;;;0.00;99.90;;;;;;5095140;28;19912;-69
2023/01/28 01:52:56;;;;;;;;;;;0.00;99.90;;;;;;5103117;28;19912;-69
2023/01/28 01:55:23;;;;;;;;;;;0.00;99.90;;;;;;5096181;28;19912;-69
2023/01/28 01:57:50;;;;;;;;;;;0.00;99.90;;;;;;5093245;28;19959;-69
2023/01/28 02:00:16;;;;;;;;;;;-0.10;99.90;;;;;;5080649;28;20272;-70
2023/01/28 02:02:44;;;;;;;;;;;-0.20;99.90;;;;;;5097015;28;19919;-70
2023/01/28 02:05:11;;;;;;;;;;;-0.20;99.90;;;;;;5099057;28;19919;-70
2023/01/28 02:07:37;;;;;;;;;;;-0.20;99.90;;;;;;5104512;28;19923;-70
2023/01/28 02:10:04;;;;;;;;;;;-0.10;99.90;;;;;;5096943;28;19920;-70
2023/01/28 02:12:33;;;;;;;;;;;-0.20;99.90;;;;;;5096297;28;19953;-70
2023/01/28 02:15:05;;;;;;;;;;;-0.20;99.90;;;;;;5097224;28;19916;-69
2023/01/28 02:17:31;;;;;;;;;;;-0.30;99.90;;;;;;5095923;28;19923;-69
2023/01/28 02:20:01;;;;;;;;;;;-0.40;99.90;;;;;;5093648;28;20287;-69
2023/01/28 02:22:34;;;;;;;;;;;-0.50;99.90;;;;;;5096940;28;19915;-69
2023/01/28 02:25:27;;;;;;;;;;;-0.50;99.90;;;;;;5101858;28;19920;-69
2023/01/28 02:31:08;;;;;;;;;;;-0.50;99.90;;;;;;5076716;28;20150;-69
2023/01/28 02:33:42;;;;;;;;;;;-0.30;99.90;;;;;;5076249;28;20461;-69
2023/01/28 02:36:22;;;;;;;;;;;-0.20;99.90;;;;;;5070590;28;20490;-70
2023/01/28 02:38:49;;;;;;;;;;;-0.10;99.90;;;;;;5078198;28;19920;-69
2023/01/28 02:41:19;;;;;;;;;;;-0.10;99.90;;;;;;5073601;28;20113;-68
2023/01/28 02:43:45;;;;;;;;;;;-0.10;99.90;;;;;;5069870;28;20423;-69
2023/01/28 02:48:58;;;;;;;;;;;0.10;99.90;;;;;;5070598;28;19951;-69
2023/01/28 02:51:33;;;;;;;;;;;0.20;99.90;;;;;;5066732;28;20328;-70
2023/01/28 02:54:21;;;;;;;;;;;0.10;99.90;;;;;;5069504;28;19928;-70
2023/01/28 02:56:49;;;;;;;;;;;0.20;99.90;;;;;;5071864;28;19913;-69
2023/01/28 02:59:35;;;;;;;;;;;0.20;99.90;;;;;;5063616;28;19923;-69
2023/01/28 03:02:19;;;;;;;;;;;0.20;99.90;;;;;;5077995;28;20015;-69
2023/01/28 03:04:49;;;;;;;;;;;0.20;99.90;;;;;;5090178;28;20279;-69
2023/01/28 03:07:16;;;;;;;;;;;0.30;99.90;;;;;;5094080;28;20031;-70
2023/01/28 03:09:44;;;;;;;;;;;0.30;99.90;;;;;;5088505;28;20000;-70
2023/01/28 03:37:42;;;;;;;;;;;0.80;99.90;;;;;;5093453;28;19970;-70
2023/01/28 03:40:08;;;;;;;;;;;0.90;99.90;;;;;;5096833;28;19943;-70
2023/01/28 03:42:33;;;;;;;;;;;1.00;99.90;;;;;;5093757;28;19966;-69
2023/01/28 03:45:02;;;;;;;;;;;1.20;99.90;;;;;;5096277;28;19912;-70
2023/01/28 03:47:29;;;;;;;;;;;1.20;99.90;;;;;;5092549;28;19926;-70
2023/01/28 03:49:56;;;;;;;;;;;1.20;99.90;;;;;;5093870;28;19912;-70
2023/01/28 03:52:23;;;;;;;;;;;1.30;99.90;;;;;;5092023;28;19997;-70
2023/01/28 03:54:50;;;;;;;;;;;1.20;99.90;;;;;;5092710;28;19966;-70
2023/01/28 03:57:16;;;;;;;;;;;1.20;99.90;;;;;;5092386;28;20014;-70
2023/01/28 03:59:42;;;;;;;;;;;1.30;99.90;;;;;;5099902;28;19916;-69
2023/01/28 04:02:09;;;;;;;;;;;1.30;99.90;;;;;;5095814;28;19965;-70
2023/01/28 04:04:38;;;;;;;;;;;1.30;99.90;;;;;;5103897;28;19911;-69
2023/01/28 04:07:07;;;;;;;;;;;1.40;99.90;;;;;;5093316;28;19959;-69
2023/01/28 04:09:36;;;;;;;;;;;1.50;99.90;;;;;;5092258;28;19919;-69
2023/01/28 04:12:02;;;;;;;;;;;1.50;99.90;;;;;;5094739;28;19961;-68
2023/01/28 04:14:27;;;;;;;;;;;1.70;99.90;;;;;;5089393;28;19989;-70
2023/01/28 04:16:56;;;;;;;;;;;1.60;99.90;;;;;;5100576;28;20364;-68
2023/01/28 04:19:22;;;;;;;;;;;1.60;99.90;;;;;;5093546;28;19916;-70
2023/01/28 04:21:48;;;;;;;;;;;1.60;99.90;;;;;;5095717;28;19913;-69
2023/01/28 04:24:14;;;;;;;;;;;1.70;99.90;;;;;;5093794;28;20347;-70
2023/01/28 04:26:39;;;;;;;;;;;1.70;99.90;;;;;;5094499;28;19924;-70
2023/01/28 04:29:05;;;;;;;;;;;1.70;99.90;;;;;;5089585;28;20425;-68
2023/01/28 04:31:31;;;;;;;;;;;1.80;99.90;;;;;;5107246;28;19938;-71
2023/01/28 04:33:56;;;;;;;;;;;1.80;99.90;;;;;;5099013;28;19957;-69
2023/01/28 04:36:22;;;;;;;;;;;1.80;99.90;;;;;;5095592;28;20354;-70
2023/01/28 04:38:48;;;;;;;;;;;1.80;99.90;;;;;;5081982;28;19918;-69
2023/01/28 04:41:14;;;;;;;;;;;1.90;99.90;;;;;;5098064;28;20015;-70
2023/01/28 04:43:39;;;;;;;;;;;1.90;99.90;;;;;;5103794;28;20382;-69
2023/01/28 04:46:05;;;;;;;;;;;1.90;99.90;;;;;;5097926;28;19916;-69
2023/01/28 04:48:30;;;;;;;;;;;1.90;99.90;;;;;;5095365;28;19919;-69
2023/01/28 04:50:56;;;;;;;;;;;1.80;99.90;;;;;;5108859;27;19963;-69
2023/01/28 04:53:22;;;;;;;;;;;1.90;99.90;;;;;;5091618;28;19916;-69
2023/01/28 04:55:47;;;;;;;;;;;1.90;99.90;;;;;;5090813;28;20359;-70
2023/01/28 04:58:13;;;;;;;;;;;1.80;99.90;;;;;;5098478;28;19972;-69
2023/01/28 05:00:39;;;;;;;;;;;1.80;99.90;;;;;;5093395;28;20306;-69
2023/01/28 05:03:04;;;;;;;;;;;1.90;99.90;;;;;;5092110;28;20423;-70
2023/01/28 05:05:30;;;;;;;;;;;1.90;99.90;;;;;;5096990;28;19911;-68
2023/01/28 05:07:56;;;;;;;;;;;1.80;99.90;;;;;;5097957;28;20366;-69
2023/01/28 05:10:22;;;;;;;;;;;1.80;99.90;;;;;;5094673;28;19945;-70
2023/01/28 05:12:48;;;;;;;;;;;1.80;99.90;;;;;;5094607;28;19912;-71
2023/01/28 05:15:17;;;;;;;;;;;1.80;99.90;;;;;;5093208;28;19912;-70
2023/01/28 05:17:43;;;;;;;;;;;1.80;99.90;;;;;;5107601;28;19965;-70
2023/01/28 05:20:09;;;;;;;;;;;1.80;99.90;;;;;;5098874;28;19916;-68
2023/01/28 05:22:35;;;;;;;;;;;1.80;99.90;;;;;;5096702;28;19917;-69
2023/01/28 05:25:02;;;;;;;;;;;1.80;99.90;;;;;;5093263;28;19912;-68
2023/01/28 05:27:28;;;;;;;;;;;1.80;99.90;;;;;;5098138;28;19967;-69
2023/01/28 05:29:54;;;;;;;;;;;1.90;99.90;;;;;;5090579;28;19920;-69
2023/01/28 05:32:19;;;;;;;;;;;2.00;99.90;;;;;;5100592;28;19957;-69
2023/01/28 05:34:45;;;;;;;;;;;1.90;99.90;;;;;;5080285;28;19948;-69
2023/01/28 05:37:10;;;;;;;;;;;1.90;99.90;;;;;;5105321;28;19912;-68
2023/01/28 05:39:36;;;;;;;;;;;1.90;99.90;;;;;;5073217;28;19912;-70
2023/01/28 05:42:02;;;;;;;;;;;2.00;99.90;;;;;;5093796;28;19916;-69
2023/01/28 05:44:27;;;;;;;;;;;2.00;99.90;;;;;;5098863;28;19919;-69
2023/01/28 05:46:53;;;;;;;;;;;2.00;99.90;;;;;;5109898;28;19919;-69
2023/01/28 05:49:19;;;;;;;;;;;2.00;99.90;;;;;;5091248;28;20008;-70
2023/01/28 05:51:44;;;;;;;;;;;2.00;99.90;;;;;;5098024;28;19912;-69
2023/01/28 05:54:10;;;;;;;;;;;2.00;99.90;;;;;;5105337;28;19954;-69
2023/01/28 05:56:36;;;;;;;;;;;2.00;99.90;;;;;;5091027;28;19915;-69
2023/01/28 05:59:02;;;;;;;;;;;1.90;99.90;;;;;;5097616;28;19939;-69
2023/01/28 06:01:28;;;;;;;;;;;2.00;99.90;;;;;;5087943;28;20352;-70
2023/01/28 06:03:53;;;;;;;;;;;2.00;99.90;;;;;;5090774;28;19943;-69
2023/01/28 06:06:19;;;;;;;;;;;2.00;99.90;;;;;;5080089;28;19980;-69
2023/01/28 06:08:45;;;;;;;;;;;2.00;99.90;;;;;;5091943;28;19990;-69
2023/01/28 06:11:10;;;;;;;;;;;2.00;99.90;;;;;;5093376;28;19916;-69
2023/01/28 06:13:36;;;;;;;;;;;2.00;99.90;;;;;;5093968;28;20282;-69
2023/01/28 06:16:02;;;;;;;;;;;2.00;99.90;;;;;;5097580;28;20438;-70
2023/01/28 06:18:27;;;;;;;;;;;2.00;99.90;;;;;;5091320;28;19912;-69
2023/01/28 06:20:53;;;;;;;;;;;2.00;99.90;;;;;;5097380;28;19963;-69
2023/01/28 06:23:19;;;;;;;;;;;2.00;99.90;;;;;;5105949;28;19912;-70
2023/01/28 06:25:44;;;;;;;;;;;2.00;99.90;;;;;;5098976;28;20283;-69
2023/01/28 06:28:10;;;;;;;;;;;2.10;99.90;;;;;;5097634;28;19912;-70
2023/01/28 06:30:36;;;;;;;;;;;2.10;99.90;;;;;;5110032;28;19912;-69
2023/01/28 06:33:01;;;;;;;;;;;2.10;99.90;;;;;;5089584;28;19916;-69
2023/01/28 06:35:27;;;;;;;;;;;2.00;99.90;;;;;;5089096;28;19912;-69
2023/01/28 06:37:53;;;;;;;;;;;2.00;99.90;;;;;;5101547;28;20033;-69
2023/01/28 06:40:19;;;;;;;;;;;2.00;99.90;;;;;;5097568;28;19916;-70
2023/01/28 06:42:44;;;;;;;;;;;2.00;99.90;;;;;;5088183;28;20015;-68
2023/01/28 06:45:10;;;;;;;;;;;2.00;99.90;;;;;;5098219;28;19918;-69
2023/01/28 06:47:37;;;;;;;;;;;2.00;99.90;;;;;;5092732;28;20019;-68
2023/01/28 06:50:03;;;;;;;;;;;2.00;99.90;;;;;;5102880;28;19938;-72
2023/01/28 06:52:29;;;;;;;;;;;2.00;99.90;;;;;;5095661;28;19912;-70
2023/01/28 06:54:54;;;;;;;;;;;1.90;99.90;;;;;;5104357;28;19912;-69
2023/01/28 06:57:20;;;;;;;;;;;1.90;99.90;;;;;;5084873;28;19929;-70
2023/01/28 06:59:46;;;;;;;;;;;1.80;99.90;;;;;;5088531;28;19926;-69
2023/01/28 07:02:11;;;;;;;;;;;1.80;99.90;;;;;;5089809;28;19971;-69
2023/01/28 07:04:37;;;;;;;;;;;1.70;99.90;;;;;;5090083;28;20264;-69
2023/01/28 07:07:02;;;;;;;;;;;1.70;99.90;;;;;;5097251;28;19920;-69
2023/01/28 07:09:28;;;;;;;;;;;1.70;99.90;;;;;;5095593;28;19955;-69
2023/01/28 07:11:54;;;;;;;;;;;1.60;99.90;;;;;;5087199;28;19912;-69
2023/01/28 07:14:19;;;;;;;;;;;1.60;99.90;;;;;;5091746;28;19916;-68
2023/01/28 07:16:45;;;;;;;;;;;1.70;99.90;;;;;;5101988;28;19912;-70
2023/01/28 07:19:10;;;;;;;;;;;1.70;99.90;;;;;;5093282;28;19912;-69
2023/01/28 07:21:36;;;;;;;;;;;1.70;99.90;;;;;;5093498;28;20272;-69
2023/01/28 07:24:04;;;;;;;;;;;1.80;99.90;;;;;;5096198;28;20382;-69
2023/01/28 07:26:29;;;;;;;;;;;1.80;99.90;;;;;;5093531;28;19920;-69
2023/01/28 07:28:55;;;;;;;;;;;2.00;99.90;;;;;;5100228;28;20283;-70
2023/01/28 07:31:20;;;;;;;;;;;2.00;99.90;;;;;;5096047;28;19999;-69
2023/01/28 07:33:46;;;;;;;;;;;2.10;99.90;;;;;;5095674;28;19912;-69
2023/01/28 07:36:12;;;;;;;;;;;2.20;99.90;;;;;;5091891;28;20294;-69
2023/01/28 07:38:37;;;;;;;;;;;2.10;99.90;;;;;;5096294;28;19918;-69
2023/01/28 07:41:03;;;;;;;;;;;2.30;99.90;;;;;;5093785;28;19999;-69
2023/01/28 07:43:30;;;;;;;;;;;2.30;99.90;;;;;;5091255;28;19947;-69
2023/01/28 07:45:58;;;;;;;;;;;2.30;99.90;;;;;;5095419;28;19958;-69
2023/01/28 07:48:24;;;;;;;;;;;2.40;99.90;;;;;;5092513;28;19926;-69
2023/01/28 07:50:50;;;;;;;;;;;2.40;99.90;;;;;;5096045;28;19912;-69
2023/01/28 07:53:16;;;;;;;;;;;2.40;99.90;;;;;;5097537;28;20278;-69
2023/01/28 07:55:42;;;;;;;;;;;2.40;99.90;;;;;;5092615;28;19999;-69
2023/01/28 07:58:09;;;;;;;;;;;2.40;99.90;;;;;;5092715;28;20253;-69
2023/01/28 08:00:36;;;;;;;;;;;2.40;99.90;;;;;;5103518;28;19912;-69
2023/01/28 08:03:03;;;;;;;;;;;2.50;99.90;;;;;;5099744;28;19945;-68
2023/01/28 08:05:37;;;;;;;;;;;2.50;99.90;;;;;;5096514;28;19912;-69
2023/01/28 08:08:04;;;;;;;;;;;2.50;99.90;;;;;;5096592;28;19927;-69
2023/01/28 08:10:29;;;;;;;;;;;2.50;99.90;;;;;;5094436;28;19912;-70
2023/01/28 08:12:57;;;;;;;;;;;2.60;99.90;;;;;;5101800;28;20410;-70
2023/01/28 08:15:23;;;;;;;;;;;2.60;99.90;;;;;;5090622;28;19923;-70
2023/01/28 08:17:49;;;;;;;;;;;2.70;99.90;;;;;;5104851;28;19912;-70
2023/01/28 08:20:15;;;;;;;;;;;2.70;99.90;;;;;;5095992;28;20019;-70
2023/01/28 08:22:41;;;;;;;;;;;2.70;99.90;;;;;;5097212;28;19920;-69
2023/01/28 08:25:06;;;;;;;;;;;2.80;99.90;;;;;;5073019;28;19935;-70
2023/01/28 08:27:32;;;;;;;;;;;2.80;99.90;;;;;;5091779;28;19920;-69
2023/01/28 08:29:57;;;;;;;;;;;2.80;99.90;;;;;;5096016;28;19920;-70
2023/01/28 08:32:24;;;;;;;;;;;2.70;99.90;;;;;;5095930;28;20472;-69
2023/01/28 08:34:49;;;;;;;;;;;2.80;99.90;;;;;;5090838;28;20334;-69
2023/01/28 08:37:15;;;;;;;;;;;2.90;99.90;;;;;;5097191;28;20352;-69
2023/01/28 08:39:41;;;;;;;;;;;2.90;99.90;;;;;;5097277;28;19912;-69
2023/01/28 08:42:07;;;;;;;;;;;3.00;99.90;;;;;;5099706;28;20279;-70
2023/01/28 08:44:32;;;;;;;;;;;3.00;99.90;;;;;;5079936;28;20364;-70
2023/01/28 08:46:58;;;;;;;;;;;3.00;99.90;;;;;;5091042;28;19927;-68
2023/01/28 08:49:24;;;;;;;;;;;3.10;99.90;;;;;;5093400;28;20028;-69
2023/01/28 08:51:50;;;;;;;;;;;3.20;99.90;;;;;;5086228;28;19931;-68
2023/01/28 08:54:15;;;;;;;;;;;3.20;99.90;;;;;;5116172;27;19912;-68
2023/01/28 08:56:44;;;;;;;;;;;3.30;99.90;;;;;;5088937;28;20010;-73
2023/01/28 08:59:10;;;;;;;;;;;3.40;99.90;;;;;;5088038;28;20345;-69
2023/01/28 09:01:36;;;;;;;;;;;3.50;99.90;;;;;;5096274;28;19958;-68
2023/01/28 09:04:02;;;;;;;;;;;3.40;99.90;;;;;;5090373;28;19920;-69
2023/01/28 09:06:28;;;;;;;;;;;3.50;99.90;;;;;;5089742;28;19920;-69
2023/01/28 09:08:57;;;;;;;;;;;3.50;99.90;;;;;;5091897;28;19912;-69
2023/01/28 09:11:23;;;;;;;;;;;3.50;99.90;;;;;;5092705;28;19924;-70
2023/01/28 09:13:48;;;;;;;;;;;3.60;99.90;;;;;;5089518;28;19920;-69
2023/01/28 09:16:14;;;;;;;;;;;3.60;99.90;;;;;;5077032;28;19912;-69
2023/01/28 09:18:40;;;;;;;;;;;3.60;99.90;;;;;;5090092;28;19965;-69
2023/01/28 09:21:06;;;;;;;;;;;3.70;99.90;;;;;;5096855;28;19912;-69
2023/01/28 09:23:35;;;;;;;;;;;3.80;99.90;;;;;;5090880;28;19999;-66
2023/01/28 09:26:01;;;;;;;;;;;3.90;99.90;;;;;;5089202;28;19919;-69
2023/01/28 09:28:28;;;;;;;;;;;3.90;99.90;;;;;;5101019;28;19957;-68
2023/01/28 09:31:04;;;;;;;;;;;4.00;99.90;;;;;;5089212;28;19911;-68
2023/01/28 09:33:30;;;;;;;;;;;4.00;99.90;;;;;;5087790;28;19912;-68
2023/01/28 09:35:58;;;;;;;;;;;4.00;99.90;;;;;;5091454;28;20385;-69
2023/01/28 09:38:24;;;;;;;;;;;4.10;99.90;;;;;;5103935;28;20486;-68
2023/01/28 09:40:49;;;;;;;;;;;4.10;99.90;;;;;;5097645;28;19947;-68
2023/01/28 09:43:34;;;;;;;;;;;4.10;99.90;;;;;;5086735;28;20027;-68
2023/01/28 09:46:01;;;;;;;;;;;4.10;99.90;;;;;;5119278;27;20387;-68
2023/01/28 09:48:31;;;;;;;;;;;4.10;99.90;;;;;;5085573;28;19934;-68
2023/01/28 09:50:57;;;;;;;;;;;4.20;99.90;;;;;;5108977;27;19912;-68
2023/01/28 09:53:30;;;;;;;;;;;4.20;99.90;;;;;;5087120;28;19929;-68
2023/01/28 09:56:01;;;;;;;;;;;4.20;99.90;;;;;;5108445;27;20352;-68
2023/01/28 09:58:27;;;;;;;;;;;4.10;99.90;;;;;;5091405;28;19919;-68
2023/01/28 10:00:57;;;;;;;;;;;4.30;99.90;;;;;;5107070;28;19920;-68
2023/01/28 10:03:35;;;;;;;;;;;4.30;99.90;;;;;;5090755;28;19962;-70
2023/01/28 10:06:07;;;;;;;;;;;4.30;99.90;;;;;;5095635;28;19912;-68
2023/01/28 10:08:39;;;;;;;;;;;4.40;99.90;;;;;;5091595;28;19920;-69
2023/01/28 10:11:26;;;;;;;;;;;4.40;99.90;;;;;;5088885;28;19966;-69
2023/01/28 10:14:00;;;;;;;;;;;4.50;99.90;;;;;;5090626;28;19912;-67
2023/01/28 10:16:30;;;;;;;;;;;4.60;99.90;;;;;;5091821;28;19942;-68
2023/01/28 10:19:00;;;;;;;;;;;4.80;99.90;;;;;;5088970;28;19916;-69
2023/01/28 10:21:25;;;;;;;;;;;4.80;99.90;;;;;;5091434;28;19920;-68
2023/01/28 10:23:58;;;;;;;;;;;4.90;99.90;;;;;;5095723;28;19912;-67
2023/01/28 10:26:43;;;;;;;;;;;5.00;99.90;;;;;;5105237;28;19920;-69
2023/01/28 10:29:12;;;;;;;;;;;5.00;99.90;;;;;;5091890;28;19999;-69
2023/01/28 10:31:40;;;;;;;;;;;5.20;99.90;;;;;;5094694;28;19959;-68
2023/01/28 10:34:06;;;;;;;;;;;5.30;99.90;;;;;;5102901;28;20278;-68
2023/01/28 10:36:32;;;;;;;;;;;5.30;99.90;;;;;;5107278;28;19919;-68
2023/01/28 10:38:57;;;;;;;;;;;5.30;99.90;;;;;;5098058;28;19912;-69
2023/01/28 10:41:25;;;;;;;;;;;5.50;99.90;;;;;;5089577;28;19916;-69
2023/01/28 10:43:51;;;;;;;;;;;5.50;99.90;;;;;;5089285;28;20027;-69
2023/01/28 10:46:20;;;;;;;;;;;5.60;99.90;;;;;;5100683;28;19928;-69
2023/01/28 10:48:54;;;;;;;;;;;5.60;99.90;;;;;;5098723;28;19912;-69
2023/01/28 10:51:29;;;;;;;;;;;5.70;99.90;;;;;;5105010;28;19987;-68
2023/01/28 10:53:55;;;;;;;;;;;5.70;99.90;;;;;;5082900;28;19916;-69
2023/01/28 10:56:25;;;;;;;;;;;5.80;99.90;;;;;;5099501;28;19918;-68
2023/01/28 10:59:01;;;;;;;;;;;5.80;99.90;;;;;;5100021;28;20420;-69
2023/01/28 11:01:45;;;;;;;;;;;5.90;99.90;;;;;;5097273;28;19912;-71
2023/01/28 11:04:17;;;;;;;;;;;5.90;99.90;;;;;;5116539;27;20061;-69
2023/01/28 11:06:50;;;;;;;;;;;6.00;99.90;;;;;;5094247;28;19928;-68
2023/01/28 11:09:30;;;;;;;;;;;5.90;99.90;;;;;;5093840;28;19912;-68
2023/01/28 11:11:56;;;;;;;;;;;5.90;99.90;;;;;;5099628;28;19912;-69
2023/01/28 11:14:23;;;;;;;;;;;5.70;99.90;;;;;;5094268;28;20351;-72
2023/01/28 11:16:49;;;;;;;;;;;5.60;99.90;;;;;;5102879;28;20351;-69
2023/01/28 11:19:17;;;;;;;;;;;5.60;99.90;;;;;;5102243;28;19919;-69
2023/01/28 11:21:47;;;;;;;;;;;5.60;99.90;;;;;;5099478;28;19919;-69
2023/01/28 11:24:15;;;;;;;;;;;5.40;99.90;;;;;;5080418;28;20023;-68
2023/01/28 11:26:48;;;;;;;;;;;5.40;99.90;;;;;;5106476;28;20006;-68
2023/01/28 11:29:41;;;;;;;;;;;5.20;99.90;;;;;;5103705;28;20373;-68
2023/01/28 11:32:15;;;;;;;;;;;5.20;99.90;;;;;;5106998;28;20274;-69
2023/01/28 11:34:47;;;;;;;;;;;5.40;99.90;;;;;;5073273;28;20282;-69
2023/01/28 11:37:15;;;;;;;;;;;5.90;99.90;;;;;;5097735;28;20377;-69
2023/01/28 11:39:41;;;;;;;;;;;6.40;99.90;;;;;;5094725;28;19912;-68
2023/01/28 11:42:19;;;;;;;;;;;6.80;99.90;;;;;;5095473;28;20415;-68
2023/01/28 11:44:46;;;;;;;;;;;7.20;99.90;;;;;;5103349;28;19934;-69
2023/01/28 11:47:17;;;;;;;;;;;7.50;99.90;;;;;;5110516;28;19920;-69
2023/01/28 11:49:51;;;;;;;;;;;7.70;99.90;;;;;;5107934;28;19944;-70
2023/01/28 11:52:32;;;;;;;;;;;8.00;99.90;;;;;;5091614;28;19915;-69
2023/01/28 11:55:17;;;;;;;;;;;8.30;99.90;;;;;;5096348;28;19912;-69
2023/01/28 11:57:42;;;;;;;;;;;8.60;99.90;;;;;;5094383;28;19999;-68
2023/01/28 12:00:19;;;;;;;;;;;8.90;99.90;;;;;;5095585;28;20007;-67
2023/01/28 12:02:48;;;;;;;;;;;9.10;99.90;;;;;;5092635;28;19965;-70
2023/01/28 12:05:25;;;;;;;;;;;9.20;99.90;;;;;;5097312;28;19916;-69
2023/01/28 12:07:57;;;;;;;;;;;9.40;99.90;;;;;;5095503;28;19920;-69
2023/01/28 12:10:30;;;;;;;;;;;9.50;99.90;;;;;;5094648;28;20011;-69
2023/01/28 12:13:02;;;;;;;;;;;9.40;99.90;;;;;;5077662;28;19981;-68
2023/01/28 12:15:41;;;;;;;;;;;9.40;99.90;;;;;;5095108;28;20314;-69
2023/01/28 12:18:26;;;;;;;;;;;9.60;99.90;;;;;;5106143;28;19955;-67
2023/01/28 12:20:54;;;;;;;;;;;9.90;99.90;;;;;;5091007;28;19912;-69
2023/01/28 12:23:34;;;;;;;;;;;10.10;99.90;;;;;;5106543;28;19948;-68
2023/01/28 12:26:19;;;;;;;;;;;10.30;98.40;;;;;;5098889;28;20347;-68
2023/01/28 12:28:44;;;;;;;;;;;10.20;98.10;;;;;;5098223;28;19912;-68
2023/01/28 12:31:22;;;;;;;;;;;10.20;97.90;;;;;;5088536;28;20010;-68
2023/01/28 12:33:51;;;;;;;;;;;10.30;97.50;;;;;;5094825;28;19974;-69
2023/01/28 12:36:22;;;;;;;;;;;10.40;97.60;;;;;;5093376;28;19920;-68
2023/01/28 12:38:56;;;;;;;;;;;10.60;97.00;;;;;;5108159;28;19912;-69
2023/01/28 12:41:24;;;;;;;;;;;10.80;96.20;;;;;;5093636;28;19912;-68
2023/01/28 12:43:59;;;;;;;;;;;10.90;95.40;;;;;;5114991;27;19912;-68
2023/01/28 12:46:33;;;;;;;;;;;10.80;93.10;;;;;;5093356;28;20557;-69
2023/01/28 12:49:08;;;;;;;;;;;10.90;94.30;;;;;;5097541;28;19912;-67
2023/01/28 12:51:54;;;;;;;;;;;11.20;92.70;;;;;;5088140;28;19919;-69
2023/01/28 12:54:23;;;;;;;;;;;11.20;93.50;;;;;;5081957;28;19916;-68
2023/01/28 12:56:51;;;;;;;;;;;10.50;93.40;;;;;;5106274;28;19918;-69
2023/01/28 12:59:37;;;;;;;;;;;9.70;95.20;;;;;;5109413;28;19981;-69
2023/01/28 13:02:11;;;;;;;;;;;9.20;97.50;;;;;;5089074;28;19994;-69
2023/01/28 13:04:40;;;;;;;;;;;9.70;99.90;;;;;;5088676;28;20006;-69
2023/01/28 13:07:05;;;;;;;;;;;10.70;96.30;;;;;;5069874;28;19920;-69
2023/01/28 13:09:33;;;;;;;;;;;10.80;93.60;;;;;;5091675;28;19924;-69
2023/01/28 13:11:59;;;;;;;;;;;11.00;92.60;;;;;;5093860;28;20347;-69
2023/01/28 13:14:29;;;;;;;;;;;10.50;91.90;;;;;;5090448;28;20343;-69
2023/01/28 13:16:54;;;;;;;;;;;10.40;94.70;;;;;;5098987;28;19919;-69
2023/01/28 13:19:21;;;;;;;;;;;10.60;93.70;;;;;;5098411;28;19912;-69
2023/01/28 13:21:48;;;;;;;;;;;10.40;93.50;;;;;;5090986;28;20421;-69
2023/01/28 13:24:14;;;;;;;;;;;10.00;94.20;;;;;;5099442;28;20390;-68
2023/01/28 13:26:39;;;;;;;;;;;9.70;94.90;;;;;;5089533;28;19951;-68
2023/01/28 13:29:17;;;;;;;;;;;9.60;96.40;;;;;;5097087;28;19964;-69
2023/01/28 13:31:44;;;;;;;;;;;9.40;96.30;;;;;;5091087;28;19912;-69
2023/01/28 13:34:25;;;;;;;;;;;9.30;97.60;;;;;;5102654;28;19912;-68
2023/01/28 13:36:51;;;;;;;;;;;9.20;98.70;;;;;;5101558;28;19919;-70
2023/01/28 13:39:19;;;;;;;;;;;9.00;98.70;;;;;;5098266;28;19911;-68
2023/01/28 13:41:45;;;;;;;;;;;9.00;99.40;;;;;;5094878;28;20271;-68
2023/01/28 13:44:26;;;;;;;;;;;8.70;99.90;;;;;;5105167;28;19919;-67
2023/01/28 13:46:53;;;;;;;;;;;8.70;99.90;;;;;;5092156;28;19920;-69
2023/01/28 13:49:21;;;;;;;;;;;8.50;99.90;;;;;;5096454;28;20022;-69
2023/01/28 13:52:11;;;;;;;;;;;8.50;99.90;;;;;;5099172;28;19916;-69
2023/01/28 13:54:39;;;;;;;;;;;8.50;99.90;;;;;;5088996;28;20404;-69
2023/01/28 13:57:11;;;;;;;;;;;8.50;99.90;;;;;;5090010;28;20292;-69
2023/01/28 13:59:43;;;;;;;;;;;8.30;99.90;;;;;;5102976;28;19919;-69
2023/01/28 14:02:24;;;;;;;;;;;8.20;99.90;;;;;;5098324;28;20076;-68
2023/01/28 14:04:49;;;;;;;;;;;8.00;99.90;;;;;;5104322;28;20359;-69
2023/01/28 14:07:33;;;;;;;;;;;7.90;99.90;;;;;;5098153;28;19920;-67
2023/01/28 14:10:08;;;;;;;;;;;7.80;99.90;;;;;;5100461;28;19912;-69
2023/01/28 14:12:37;;;;;;;;;;;7.80;99.90;;;;;;5088451;28;19912;-69
2023/01/28 14:15:31;;;;;;;;;;;7.70;99.90;;;;;;5101384;28;20443;-70
2023/01/28 14:17:57;;;;;;;;;;;7.70;99.90;;;;;;5096338;28;20404;-69
2023/01/28 14:20:29;;;;;;;;;;;7.70;99.90;;;;;;5099422;28;19927;-68
2023/01/28 14:23:00;;;;;;;;;;;7.60;99.90;;;;;;5095782;28;19912;-68
2023/01/28 14:25:54;;;;;;;;;;;7.70;99.90;;;;;;5100543;28;19923;-68
2023/01/28 14:28:24;;;;;;;;;;;7.80;99.90;;;;;;5077992;28;20181;-69
2023/01/28 14:30:55;;;;;;;;;;;7.70;99.90;;;;;;5103745;28;19912;-69
2023/01/28 14:33:21;;;;;;;;;;;7.70;99.90;;;;;;5081839;28;19966;-69
2023/01/28 14:35:48;;;;;;;;;;;7.60;99.90;;;;;;5088915;28;20340;-71
2023/01/28 14:38:18;;;;;;;;;;;7.60;99.90;;;;;;5091505;28;20390;-70
2023/01/28 14:40:44;;;;;;;;;;;7.60;99.90;;;;;;5095296;28;19955;-69
2023/01/28 14:43:15;;;;;;;;;;;7.60;99.90;;;;;;5100863;28;19935;-67
2023/01/28 14:45:47;;;;;;;;;;;7.60;99.90;;;;;;5098670;28;19974;-69
2023/01/28 14:48:24;;;;;;;;;;;7.60;99.90;;;;;;5090391;28;19920;-68
2023/01/28 14:50:59;;;;;;;;;;;7.60;99.90;;;;;;5092516;28;19913;-69
2023/01/28 14:53:39;;;;;;;;;;;7.70;99.90;;;;;;5092741;28;19913;-69
2023/01/28 14:56:28;;;;;;;;;;;7.70;99.90;;;;;;5090444;28;19916;-69
2023/01/28 14:58:59;;;;;;;;;;;7.70;99.90;;;;;;5095841;28;19938;-69
2023/01/28 15:01:27;;;;;;;;;;;7.80;99.90;;;;;;5103491;28;19959;-69
2023/01/28 15:03:53;;;;;;;;;;;7.70;99.90;;;;;;5097633;28;20386;-69
2023/01/28 15:06:20;;;;;;;;;;;7.60;99.90;;;;;;5101251;28;19912;-69
2023/01/28 15:08:46;;;;;;;;;;;7.50;99.90;;;;;;5099000;28;19968;-68